Eastampton, New Jersey
Current Conditions -  °F | °C
As of 1:54 AM on Monday 24 Nov 2014 (Local Time) from KVAY Reporting Station
Moderate Rain Moderate Rain  
Wind Chill: 59°   Ceiling: 600
Heat Index: 59°   Visibility: 3mi
Dew Point: 57°   Wind: 8mph
Humidity: 93%   Direction: 140°SE
Pressure: 29.81"   Gusts: 18mph
Location:  39.9896°N, 74.8021°W
Report Text: KVAY 240654Z AUTO 14007G16KT 3SM RA BR OVC006 15/14 A2981 RMK AO2 PRESFR SLP095 P0008 T01500139
Loading
Personal Weather Stations






























Interactive Weather Map New forecast layout! Learn more

10-Day Weather Forecast

Advertisements
Track Severe Weather on mobile